Time;durP1;ratioP1;P1;durP2;ratioP2;P2;SDS_P1;SDS_P2;PMS_P1;PMS_P2;Temp;Humidity;BMP_temperature;BMP_pressure;BME280_temperature;BME280_humidity;BME280_pressure;Samples;Min_cycle;Max_cycle;Signal;HPM_P1;HPM_P2
2023/09/10 00:00:52;;;;;;;16.55;7.85;;;;;;;11.63;100.00;100174.84;5069983;28;20055;-43
2023/09/10 00:03:18;;;;;;;14.45;6.68;;;;;;;11.53;100.00;100162.16;5063379;28;20144;-43
2023/09/10 00:05:44;;;;;;;14.50;7.05;;;;;;;11.59;100.00;100178.44;5070686;28;20803;-44
2023/09/10 00:08:10;;;;;;;16.98;7.35;;;;;;;11.56;100.00;100169.88;5045573;28;20044;-45
2023/09/10 00:10:37;;;;;;;14.00;6.97;;;;;;;11.55;100.00;100179.44;5064634;28;20101;-43
2023/09/10 00:13:03;;;;;;;14.50;6.65;;;;;;;11.50;100.00;100172.66;5069910;28;20134;-46
2023/09/10 00:15:29;;;;;;;15.73;6.82;;;;;;;11.52;100.00;100176.06;5056914;28;20520;-43
2023/09/10 00:17:55;;;;;;;11.07;6.47;;;;;;;11.31;100.00;100151.53;5069964;28;20404;-43
2023/09/10 00:20:21;;;;;;;17.70;7.05;;;;;;;11.47;100.00;100173.59;5061928;28;20048;-42
2023/09/10 00:22:47;;;;;;;12.05;6.63;;;;;;;11.47;100.00;100177.06;5062212;28;20131;-42
2023/09/10 00:25:13;;;;;;;11.75;6.85;;;;;;;11.35;100.00;100151.41;5064708;28;20269;-44
2023/09/10 00:27:39;;;;;;;14.43;6.13;;;;;;;11.47;100.00;100176.19;5063575;28;20531;-43
2023/09/10 00:30:06;;;;;;;13.05;7.07;;;;;;;11.51;100.00;100172.63;5061547;28;20044;-42
2023/09/10 00:32:31;;;;;;;11.73;6.78;;;;;;;11.59;100.00;100188.00;5062668;28;20079;-42
2023/09/10 00:34:58;;;;;;;10.98;6.45;;;;;;;11.65;100.00;100182.63;5066852;28;20040;-43
2023/09/10 00:37:23;;;;;;;12.85;6.25;;;;;;;11.74;100.00;100180.59;5063751;28;20041;-42
2023/09/10 00:39:50;;;;;;;10.02;5.95;;;;;;;11.82;100.00;100172.56;5076348;28;20044;-42
2023/09/10 00:42:17;;;;;;;14.32;6.43;;;;;;;11.89;100.00;100174.91;5073713;28;20040;-41
2023/09/10 00:44:43;;;;;;;15.15;6.75;;;;;;;11.97;100.00;100179.91;5072850;28;20047;-43
2023/09/10 00:47:09;;;;;;;12.98;7.15;;;;;;;12.06;100.00;100176.13;5073682;28;20035;-43
2023/09/10 00:49:36;;;;;;;18.30;6.75;;;;;;;12.12;100.00;100181.16;5069930;28;20041;-45
2023/09/10 00:52:02;;;;;;;13.05;6.30;;;;;;;12.18;100.00;100170.53;5075392;28;20375;-43
2023/09/10 00:54:32;;;;;;;15.77;7.28;;;;;;;12.29;100.00;100178.84;5052309;28;20045;-43
2023/09/10 00:57:02;;;;;;;15.25;6.32;;;;;;;12.37;100.00;100178.56;5061688;28;20093;-43
2023/09/10 00:59:29;;;;;;;13.32;7.53;;;;;;;12.40;100.00;100168.06;5043401;28;20140;-43
2023/09/10 01:01:55;;;;;;;16.55;6.25;;;;;;;12.29;99.88;100140.59;5038024;28;20032;-44
2023/09/10 01:04:21;;;;;;;13.75;6.70;;;;;;;12.58;99.76;100170.88;5058082;28;20451;-45
2023/09/10 01:06:49;;;;;;;13.73;6.70;;;;;;;12.67;99.17;100174.91;5081089;28;20043;-44
2023/09/10 01:09:15;;;;;;;9.40;6.60;;;;;;;12.73;98.69;100178.16;5061198;28;20047;-42
2023/09/10 01:12:03;;;;;;;11.95;6.30;;;;;;;12.78;97.94;100175.38;5068394;28;20470;-42
2023/09/10 01:14:55;;;;;;;14.93;7.00;;;;;;;12.86;97.54;100180.34;5058334;28;20615;-43
2023/09/10 01:17:37;;;;;;;15.73;6.35;;;;;;;12.90;96.94;100182.78;5052887;28;20060;-42
2023/09/10 01:20:22;;;;;;;10.43;5.90;;;;;;;12.93;96.37;100180.03;5057965;28;20183;-44
2023/09/10 01:23:03;;;;;;;10.80;6.47;;;;;;;12.96;95.94;100177.34;5057801;28;20467;-42
2023/09/10 01:25:30;;;;;;;9.48;5.85;;;;;;;13.01;95.07;100180.63;5048329;28;20451;-44
2023/09/10 01:27:56;;;;;;;10.30;6.13;;;;;;;13.06;94.68;100183.06;5070084;28;20071;-42
2023/09/10 01:30:22;;;;;;;10.65;6.47;;;;;;;13.09;93.98;100183.81;5065296;28;20064;-46
2023/09/10 01:32:52;;;;;;;11.93;6.57;;;;;;;13.13;93.65;100182.00;5069537;28;20050;-42
2023/09/10 01:35:32;;;;;;;13.88;6.45;;;;;;;13.17;93.16;100180.09;5048053;28;20076;-45
2023/09/10 01:38:03;;;;;;;11.93;5.90;;;;;;;13.18;92.66;100179.22;5070915;28;20051;-42
2023/09/10 01:40:39;;;;;;;10.30;6.63;;;;;;;13.21;92.15;100173.84;5070188;28;20065;-45
2023/09/10 01:43:06;;;;;;;15.07;6.88;;;;;;;13.22;91.87;100172.94;5080020;28;20048;-44
2023/09/10 01:45:34;;;;;;;11.23;6.07;;;;;;;13.08;91.39;100142.13;5077295;28;20048;-46
2023/09/10 01:48:01;;;;;;;13.80;7.07;;;;;;;13.29;91.13;100174.44;5072465;28;20040;-43
2023/09/10 01:50:30;;;;;;;11.10;6.88;;;;;;;13.30;90.92;100163.06;5062907;28;20032;-45
2023/09/10 01:52:57;;;;;;;10.20;7.28;;;;;;;13.33;90.41;100170.78;5071108;28;20032;-43
2023/09/10 01:55:23;;;;;;;9.07;7.18;;;;;;;13.35;89.98;100167.19;5073093;28;20670;-42
2023/09/10 01:57:49;;;;;;;10.68;7.88;;;;;;;13.36;89.55;100165.44;5089898;28;20750;-44
2023/09/10 02:00:15;;;;;;;10.40;7.70;;;;;;;13.40;89.21;100162.66;5068906;28;20058;-44
2023/09/10 02:02:41;;;;;;;11.05;7.63;;;;;;;13.44;88.75;100168.63;5057774;28;20190;-43
2023/09/10 02:05:07;;;;;;;11.40;7.65;;;;;;;13.44;88.39;100171.25;5070117;28;20134;-44
2023/09/10 02:07:34;;;;;;;9.00;6.82;;;;;;;13.45;88.26;100165.94;5070258;28;20448;-45
2023/09/10 02:10:00;;;;;;;10.68;6.90;;;;;;;13.47;87.83;100164.13;5054095;28;20041;-44
2023/09/10 02:12:26;;;;;;;11.90;7.38;;;;;;;13.50;87.49;100163.19;5073898;28;20047;-44
2023/09/10 02:14:52;;;;;;;9.57;7.00;;;;;;;13.50;87.41;100168.41;5063455;28;20172;-43
2023/09/10 02:17:18;;;;;;;9.15;6.93;;;;;;;13.52;87.11;100163.94;5070078;28;20345;-44
2023/09/10 02:19:44;;;;;;;10.65;6.93;;;;;;;13.53;86.86;100163.91;5090005;28;20044;-45
2023/09/10 02:22:10;;;;;;;10.07;6.63;;;;;;;13.54;86.98;100178.66;5079517;28;20065;-46
2023/09/10 02:24:36;;;;;;;8.48;6.47;;;;;;;13.55;86.84;100172.50;5042584;28;20040;-47
2023/09/10 02:27:02;;;;;;;9.52;7.32;;;;;;;13.55;86.69;100172.50;5056671;28;20116;-47
2023/09/10 02:29:27;;;;;;;10.70;6.90;;;;;;;13.57;86.84;100175.06;5068044;28;20044;-43
2023/09/10 02:31:54;;;;;;;11.15;7.10;;;;;;;13.59;86.33;100162.81;5070508;28;20573;-43
2023/09/10 02:34:20;;;;;;;9.73;6.75;;;;;;;13.53;86.22;100161.28;5066889;28;20090;-45
2023/09/10 02:36:46;;;;;;;9.13;6.78;;;;;;;13.58;86.18;100164.56;5071238;28;20036;-43
2023/09/10 02:39:12;;;;;;;9.45;7.50;;;;;;;13.45;85.90;100136.38;5062643;28;20036;-42
2023/09/10 02:41:37;;;;;;;10.63;6.28;;;;;;;13.62;85.72;100170.53;5059114;28;20068;-43
2023/09/10 02:44:04;;;;;;;10.70;6.47;;;;;;;13.61;85.69;100166.19;5072654;28;20428;-44
2023/09/10 02:46:30;;;;;;;11.27;7.05;;;;;;;13.63;85.46;100172.22;5050963;28;20562;-43
2023/09/10 02:48:55;;;;;;;10.02;6.82;;;;;;;13.64;85.22;100178.31;5017810;28;20043;-46
2023/09/10 02:51:21;;;;;;;9.32;7.25;;;;;;;13.67;85.53;100178.19;5053488;28;20029;-44
2023/09/10 02:53:48;;;;;;;11.07;6.72;;;;;;;13.67;85.43;100179.03;5039283;28;20142;-44
2023/09/10 02:56:15;;;;;;;10.40;6.85;;;;;;;13.68;85.33;100178.13;5065893;28;20110;-44
2023/09/10 02:58:41;;;;;;;10.90;7.10;;;;;;;13.69;85.27;100173.75;5065794;28;20138;-43
2023/09/10 03:01:07;;;;;;;10.05;7.07;;;;;;;13.70;85.37;100180.69;5067082;28;20064;-44
2023/09/10 03:03:33;;;;;;;10.70;6.85;;;;;;;13.49;85.19;100135.34;5072376;28;20132;-45
2023/09/10 03:05:59;;;;;;;9.38;6.88;;;;;;;13.70;85.17;100180.69;5070787;28;20047;-42
2023/09/10 03:08:25;;;;;;;10.82;7.22;;;;;;;13.68;85.03;100179.88;5062061;28;20952;-45
2023/09/10 03:10:51;;;;;;;12.05;7.05;;;;;;;13.72;84.96;100181.47;5038616;28;20569;-45
2023/09/10 03:13:17;;;;;;;12.43;7.53;;;;;;;13.73;84.88;100185.78;5055762;28;20041;-44
2023/09/10 03:15:48;;;;;;;9.20;6.97;;;;;;;13.71;84.68;100172.75;5063510;28;20032;-45
2023/09/10 03:18:13;;;;;;;11.32;6.90;;;;;;;13.73;84.43;100172.72;5068767;28;20063;-46
2023/09/10 03:20:39;;;;;;;10.18;7.00;;;;;;;13.72;84.68;100176.22;5064551;28;20130;-42
2023/09/10 03:23:06;;;;;;;10.73;7.22;;;;;;;13.73;84.19;100183.16;5067613;28;20040;-43
2023/09/10 03:25:38;;;;;;;10.52;7.30;;;;;;;13.71;84.37;100180.59;5063269;28;20097;-42
2023/09/10 03:28:04;;;;;;;10.07;7.55;;;;;;;13.58;84.30;100154.13;5058091;28;20032;-45
2023/09/10 03:30:30;;;;;;;9.48;7.43;;;;;;;13.73;84.33;100176.19;5073856;28;20044;-43
2023/09/10 03:32:56;;;;;;;9.77;7.40;;;;;;;13.74;84.21;100179.66;5069575;28;20761;-45
2023/09/10 03:35:22;;;;;;;11.05;7.00;;;;;;;13.73;84.35;100176.19;5079534;28;20139;-46
2023/09/10 03:37:48;;;;;;;10.25;7.40;;;;;;;13.77;84.11;100182.13;5071202;28;20044;-43
2023/09/10 03:40:14;;;;;;;11.55;6.97;;;;;;;13.77;83.97;100180.38;5060462;28;20036;-43
2023/09/10 03:42:40;;;;;;;12.32;7.20;;;;;;;13.78;83.99;100179.47;5061292;28;20047;-43
2023/09/10 03:45:07;;;;;;;12.45;7.30;;;;;;;13.78;83.77;100173.38;5068730;28;20036;-44
2023/09/10 03:47:33;;;;;;;11.27;7.40;;;;;;;13.78;83.59;100183.84;5072341;28;20039;-42
2023/09/10 03:50:00;;;;;;;11.55;7.32;;;;;;;13.80;83.54;100182.03;5067112;28;20427;-44
2023/09/10 03:52:26;;;;;;;13.05;7.50;;;;;;;13.83;83.37;100187.13;5067202;28;20603;-47
2023/09/10 03:54:52;;;;;;;11.85;7.82;;;;;;;13.82;83.32;100175.81;5065701;28;20235;-45
2023/09/10 03:57:18;;;;;;;11.35;7.00;;;;;;;13.86;83.33;100187.88;5046901;28;20035;-43
2023/09/10 03:59:44;;;;;;;10.95;7.18;;;;;;;13.74;83.35;100158.75;5054302;28;20222;-46
2023/09/10 04:02:11;;;;;;;10.68;6.93;;;;;;;13.90;83.36;100185.97;5064619;28;20124;-44
2023/09/10 04:04:37;;;;;;;12.93;7.40;;;;;;;13.92;83.34;100181.53;5065827;28;20048;-43
2023/09/10 04:07:03;;;;;;;10.73;6.82;;;;;;;13.78;82.87;100155.94;5081103;28;20039;-41
2023/09/10 04:09:30;;;;;;;10.27;7.70;;;;;;;13.95;83.05;100184.88;5075815;28;20048;-43
2023/09/10 04:11:57;;;;;;;12.45;7.75;;;;;;;13.96;82.67;100186.59;5062326;28;20449;-48
2023/09/10 04:14:24;;;;;;;9.95;7.10;;;;;;;13.99;82.87;100188.22;5075729;28;20044;-44
2023/09/10 04:16:50;;;;;;;11.23;8.55;;;;;;;13.99;82.44;100178.59;5072769;28;20051;-43
2023/09/10 04:19:15;;;;;;;13.15;6.80;;;;;;;13.87;82.26;100152.94;5069910;28;20028;-42
2023/09/10 04:21:41;;;;;;;11.02;6.82;;;;;;;13.89;81.92;100155.50;5063499;28;20044;-43
2023/09/10 04:24:07;;;;;;;10.93;7.32;;;;;;;14.11;81.56;100186.88;5061438;28;20075;-43
2023/09/10 04:26:33;;;;;;;10.75;7.05;;;;;;;14.13;81.49;100182.44;5067645;28;20074;-47
2023/09/10 04:29:00;;;;;;;12.48;7.50;;;;;;;14.16;80.96;100182.31;5065024;28;20064;-45
2023/09/10 04:31:27;;;;;;;11.23;7.95;;;;;;;14.01;80.69;100160.25;5067179;28;20908;-42
2023/09/10 04:33:53;;;;;;;11.20;7.75;;;;;;;14.19;80.83;100185.63;5071378;28;20139;-44
2023/09/10 04:36:19;;;;;;;11.80;6.95;;;;;;;14.21;80.31;100181.19;5066043;28;20131;-45
2023/09/10 04:38:45;;;;;;;13.20;8.85;;;;;;;14.24;80.06;100186.28;5090784;28;20040;-44
2023/09/10 04:41:12;;;;;;;13.40;7.50;;;;;;;14.28;79.87;100185.28;5061019;28;20040;-45
2023/09/10 04:43:38;;;;;;;12.18;7.32;;;;;;;14.32;79.88;100183.38;5076941;28;20051;-42
2023/09/10 04:46:04;;;;;;;11.48;7.47;;;;;;;14.28;79.47;100176.56;5075651;28;20055;-44
2023/09/10 04:48:30;;;;;;;9.65;6.72;;;;;;;14.39;79.42;100188.31;5053295;28;20084;-43
2023/09/10 04:50:56;;;;;;;12.23;6.97;;;;;;;14.38;79.36;100189.25;5063778;28;20119;-46
2023/09/10 04:53:22;;;;;;;9.10;6.53;;;;;;;14.43;79.35;100191.66;5063805;28;20048;-44
2023/09/10 04:55:53;;;;;;;14.40;8.85;;;;;;;14.46;79.10;100193.28;5070172;28;20523;-44
2023/09/10 04:58:19;;;;;;;14.80;6.88;;;;;;;14.46;78.75;100190.66;5069337;28;20774;-44
2023/09/10 05:00:45;;;;;;;9.90;6.88;;;;;;;14.49;78.91;100198.41;5066877;28;20044;-43
2023/09/10 05:03:11;;;;;;;9.60;6.55;;;;;;;14.39;78.22;100172.59;5067257;28;20056;-45
2023/09/10 05:05:37;;;;;;;10.02;6.82;;;;;;;14.53;78.23;100192.13;5054950;28;20071;-44
2023/09/10 05:08:03;;;;;;;12.02;7.00;;;;;;;14.56;78.06;100184.97;5071464;28;20050;-47
2023/09/10 05:10:30;;;;;;;11.63;7.00;;;;;;;14.60;78.19;100193.56;5047722;28;20632;-43
2023/09/10 05:12:56;;;;;;;11.10;6.53;;;;;;;14.60;77.86;100189.16;5071488;28;20056;-44
2023/09/10 05:15:22;;;;;;;14.70;7.40;;;;;;;14.62;77.34;100181.25;5073276;28;20036;-44
2023/09/10 05:17:48;;;;;;;10.70;6.93;;;;;;;14.61;77.47;100187.41;5065292;28;20129;-43
2023/09/10 05:20:14;;;;;;;9.85;6.60;;;;;;;14.64;77.24;100182.06;5056717;28;20097;-47
2023/09/10 05:22:40;;;;;;;12.45;7.35;;;;;;;14.63;77.02;100186.44;5052780;28;20047;-44
2023/09/10 05:25:07;;;;;;;11.40;7.95;;;;;;;14.63;76.67;100180.34;5057651;28;20044;-44
2023/09/10 05:27:33;;;;;;;10.15;7.13;;;;;;;14.67;76.80;100184.53;5071009;28;20036;-44
2023/09/10 05:30:00;;;;;;;13.93;7.13;;;;;;;14.69;76.63;100186.19;5072957;28;20098;-45
2023/09/10 05:32:27;;;;;;;10.80;6.95;;;;;;;14.73;76.66;100184.25;5053871;28;20036;-43
2023/09/10 05:34:54;;;;;;;10.15;6.78;;;;;;;14.76;76.44;100182.34;5063482;28;20105;-47
2023/09/10 05:37:20;;;;;;;11.02;7.28;;;;;;;14.77;76.31;100185.81;5061269;28;20040;-44
2023/09/10 05:39:46;;;;;;;12.45;7.55;;;;;;;14.76;76.20;100184.13;5074817;28;20527;-46
2023/09/10 05:42:12;;;;;;;9.75;7.50;;;;;;;14.80;75.89;100193.56;5065992;28;20153;-43
2023/09/10 05:44:38;;;;;;;11.20;7.85;;;;;;;14.73;75.73;100177.25;5073505;28;20106;-44
2023/09/10 05:47:04;;;;;;;9.75;6.70;;;;;;;14.65;75.88;100168.91;5077206;28;20044;-43
2023/09/10 05:49:32;;;;;;;12.35;7.93;;;;;;;14.84;75.78;100192.50;5066745;28;20571;-42
2023/09/10 05:51:58;;;;;;;11.27;7.27;;;;;;;14.86;75.64;100193.31;5070942;28;20479;-42
2023/09/10 05:54:24;;;;;;;10.90;7.65;;;;;;;14.87;75.06;100192.34;5074768;28;20824;-51
2023/09/10 05:56:50;;;;;;;14.05;8.68;;;;;;;14.89;75.11;100189.69;5050367;28;20044;-44
2023/09/10 05:59:16;;;;;;;11.60;7.53;;;;;;;14.93;74.95;100186.00;5058973;28;20573;-44
2023/09/10 06:01:42;;;;;;;12.25;8.95;;;;;;;14.83;74.84;100178.56;5065289;28;20044;-45
2023/09/10 06:04:09;;;;;;;11.80;7.97;;;;;;;14.95;74.49;100197.28;5068829;28;20040;-43
2023/09/10 06:06:34;;;;;;;11.10;7.40;;;;;;;14.94;75.05;100195.56;5049288;28;20047;-44
2023/09/10 06:09:00;;;;;;;12.63;7.97;;;;;;;14.96;74.62;100197.22;5054785;28;20044;-44
2023/09/10 06:11:27;;;;;;;12.27;8.05;;;;;;;14.97;74.36;100193.66;5069595;28;20036;-45
2023/09/10 06:13:53;;;;;;;11.90;7.75;;;;;;;15.00;74.42;100200.53;5047290;28;20068;-44
2023/09/10 06:16:19;;;;;;;11.43;8.13;;;;;;;15.02;74.11;100196.91;5055182;28;20503;-43
2023/09/10 06:18:44;;;;;;;15.45;10.15;;;;;;;15.04;74.27;100192.47;5067495;28;20044;-49
2023/09/10 06:21:10;;;;;;;12.40;8.90;;;;;;;15.06;74.02;100195.88;5062273;28;20170;-43
2023/09/10 06:23:36;;;;;;;14.80;9.63;;;;;;;15.07;73.99;100196.75;5065959;28;20076;-44
2023/09/10 06:26:02;;;;;;;11.07;7.28;;;;;;;15.09;73.86;100200.13;5076042;28;20506;-43
2023/09/10 06:28:28;;;;;;;11.57;7.55;;;;;;;15.10;73.71;100202.69;5070258;28;20078;-46
2023/09/10 06:30:55;;;;;;;13.52;7.85;;;;;;;15.16;73.61;100193.69;5065543;28;20043;-47
2023/09/10 06:33:21;;;;;;;10.20;7.65;;;;;;;15.21;73.51;100196.97;5061039;28;20043;-44
2023/09/10 06:35:47;;;;;;;11.25;7.53;;;;;;;15.06;73.71;100177.56;5066908;28;20044;-43
2023/09/10 06:38:13;;;;;;;18.50;10.80;;;;;;;15.25;73.30;100198.53;5061351;28;20494;-43
2023/09/10 06:40:38;;;;;;;12.35;8.68;;;;;;;15.30;73.21;100198.31;5068004;28;20047;-43
2023/09/10 06:43:06;;;;;;;11.63;8.20;;;;;;;15.17;73.10;100172.69;5066865;28;20051;-45
2023/09/10 06:45:50;;;;;;;8.88;6.80;;;;;;;15.18;72.77;100170.88;5060529;28;20124;-44
2023/09/10 06:48:16;;;;;;;12.05;7.15;;;;;;;15.39;72.57;100201.34;5072759;28;20043;-45
2023/09/10 06:50:43;;;;;;;11.05;7.35;;;;;;;15.43;72.45;100197.69;5063029;28;20044;-44
2023/09/10 06:53:09;;;;;;;11.77;7.53;;;;;;;15.38;72.28;100177.84;5069403;28;20071;-46
2023/09/10 06:55:35;;;;;;;9.27;6.38;;;;;;;15.55;72.17;100206.75;5066503;28;20052;-45
2023/09/10 06:58:01;;;;;;;14.30;7.25;;;;;;;15.64;71.81;100212.47;5047970;28;20428;-46
2023/09/10 07:00:27;;;;;;;11.52;6.63;;;;;;;15.70;71.56;100211.31;5065879;28;20037;-43
2023/09/10 07:02:53;;;;;;;11.02;7.25;;;;;;;15.82;71.07;100202.00;5061968;28;20036;-47
2023/09/10 07:05:19;;;;;;;10.20;6.00;;;;;;;15.90;70.59;100205.13;5047546;28;20562;-44
2023/09/10 07:07:48;;;;;;;10.45;5.57;;;;;;;15.85;70.15;100178.28;5066131;28;20058;-44
2023/09/10 07:10:14;;;;;;;7.72;6.20;;;;;;;16.09;69.77;100203.31;5066831;28;20159;-43
2023/09/10 07:12:40;;;;;;;8.32;5.93;;;;;;;16.07;69.18;100179.78;5064991;28;20127;-44
2023/09/10 07:15:06;;;;;;;9.45;6.68;;;;;;;16.29;68.41;100207.56;5069071;28;20040;-46
2023/09/10 07:17:32;;;;;;;8.15;5.63;;;;;;;16.37;68.08;100202.81;5068630;28;20831;-44
2023/09/10 07:19:58;;;;;;;12.00;6.13;;;;;;;16.39;67.48;100203.56;5079568;28;20583;-43
2023/09/10 07:22:23;;;;;;;8.32;5.80;;;;;;;16.37;67.09;100208.06;5078915;28;20069;-43
2023/09/10 07:24:49;;;;;;;8.25;5.40;;;;;;;16.40;66.40;100205.28;5070828;28;20070;-44
2023/09/10 07:27:15;;;;;;;9.90;7.03;;;;;;;16.44;66.49;100199.78;5059980;28;20093;-44
2023/09/10 07:29:41;;;;;;;10.30;6.68;;;;;;;16.39;65.89;100180.81;5075431;28;20127;-44
2023/09/10 07:32:07;;;;;;;8.07;6.65;;;;;;;16.61;65.93;100211.25;5064080;28;20037;-42
2023/09/10 07:34:33;;;;;;;8.70;5.97;;;;;;;16.61;65.65;100201.59;5061330;28;20043;-46
2023/09/10 07:36:59;;;;;;;7.93;6.10;;;;;;;16.71;65.30;100207.22;5065613;28;20082;-48
2023/09/10 07:39:29;;;;;;;8.82;6.97;;;;;;;16.76;65.05;100207.84;5066301;28;20086;-44
2023/09/10 07:41:55;;;;;;;8.40;7.00;;;;;;;16.61;64.75;100169.25;5065246;28;20116;-44
2023/09/10 07:44:21;;;;;;;12.45;7.30;;;;;;;16.80;64.73;100199.72;5066936;28;20036;-45
2023/09/10 07:46:47;;;;;;;10.25;7.43;;;;;;;16.90;64.25;100198.31;5064261;28;20063;-49
2023/09/10 07:49:12;;;;;;;10.10;7.28;;;;;;;16.99;63.97;100201.41;5072769;28;20050;-48
2023/09/10 07:51:39;;;;;;;9.88;7.35;;;;;;;16.94;63.78;100180.63;5069897;28;20040;-43
2023/09/10 07:54:05;;;;;;;11.00;8.25;;;;;;;17.00;63.76;100180.31;5060215;28;20158;-45
2023/09/10 07:56:31;;;;;;;12.18;8.25;;;;;;;17.00;63.45;100172.44;5063203;28;20111;-44
2023/09/10 07:58:58;;;;;;;10.52;7.25;;;;;;;17.15;63.42;100197.91;5063358;28;20044;-45
2023/09/10 08:01:23;;;;;;;12.43;7.88;;;;;;;17.02;63.17;100180.22;5050172;28;20048;-43
2023/09/10 08:03:49;;;;;;;10.40;7.57;;;;;;;17.21;63.06;100205.47;5061765;28;20042;-45
2023/09/10 08:06:15;;;;;;;13.43;8.35;;;;;;;17.24;63.04;100207.06;5059658;28;20064;-44
2023/09/10 08:08:41;;;;;;;12.93;7.78;;;;;;;17.24;63.06;100196.53;5063248;28;20043;-44
2023/09/10 08:11:07;;;;;;;12.88;9.10;;;;;;;17.18;62.80;100176.69;5065838;28;20040;-49
2023/09/10 08:13:33;;;;;;;10.95;8.57;;;;;;;17.36;62.60;100195.91;5062387;28;20032;-45
2023/09/10 08:15:59;;;;;;;12.60;9.00;;;;;;;17.41;62.53;100190.38;5059041;28;20045;-47
2023/09/10 08:18:25;;;;;;;15.20;10.23;;;;;;;17.34;62.25;100172.31;5066768;28;20044;-44
2023/09/10 08:20:51;;;;;;;15.15;8.73;;;;;;;17.52;62.17;100185.41;5044922;28;20460;-42
2023/09/10 08:23:16;;;;;;;12.77;8.15;;;;;;;17.71;61.81;100192.22;5063607;28;20036;-43
2023/09/10 08:25:42;;;;;;;11.73;8.80;;;;;;;18.25;60.80;100195.28;5064047;28;20582;-44
2023/09/10 08:28:08;;;;;;;14.20;9.20;;;;;;;18.80;59.61;100192.06;5064708;28;20101;-44
2023/09/10 08:30:35;;;;;;;14.20;10.38;;;;;;;19.51;58.29;100186.84;5063316;28;20091;-46
2023/09/10 08:33:01;;;;;;;18.67;12.63;;;;;;;21.91;54.02;100193.25;5064800;28;20522;-46
2023/09/10 08:35:43;;;;;;;11.40;7.40;;;;;;;24.46;47.82;100183.75;5062255;28;20140;-44
2023/09/10 08:38:09;;;;;;;9.30;7.28;;;;;;;26.33;45.01;100166.41;5060878;28;20170;-47
2023/09/10 08:40:37;;;;;;;10.40;8.02;;;;;;;26.87;43.52;100149.78;5061571;28;20041;-45
2023/09/10 08:43:10;;;;;;;13.02;7.45;;;;;;;28.69;40.09;100181.66;5058440;28;20116;-47
2023/09/10 08:45:36;;;;;;;7.70;6.88;;;;;;;30.20;37.80;100170.16;5062616;28;20037;-44
2023/09/10 08:48:02;;;;;;;9.55;6.80;;;;;;;31.22;35.45;100154.25;5047448;28;20047;-46
2023/09/10 08:50:28;;;;;;;13.10;8.65;;;;;;;31.86;34.14;100163.03;5045870;28;20033;-48
2023/09/10 08:52:57;;;;;;;12.50;7.07;;;;;;;31.24;33.63;100164.84;5066918;28;20037;-49
2023/09/10 08:55:23;;;;;;;13.10;8.10;;;;;;;31.04;33.49;100164.38;5068509;28;20076;-50
2023/09/10 08:57:50;;;;;;;9.90;7.85;;;;;;;32.28;31.74;100166.13;5047427;28;20039;-44
2023/09/10 09:00:16;;;;;;;11.60;8.00;;;;;;;32.60;30.92;100158.78;5063912;28;20055;-48
2023/09/10 09:02:43;;;;;;;10.48;7.18;;;;;;;33.78;29.53;100163.16;5063105;28;20060;-44
2023/09/10 09:05:10;;;;;;;11.53;8.03;;;;;;;33.46;28.97;100164.41;5076609;28;20056;-51
2023/09/10 09:07:49;;;;;;;10.35;6.40;;;;;;;33.81;28.38;100154.69;5062815;28;20044;-41
2023/09/10 09:10:26;;;;;;;8.73;7.82;;;;;;;34.69;26.99;100148.06;5014451;28;20037;-39
2023/09/10 09:13:04;;;;;;;13.18;7.70;;;;;;;35.28;26.82;100156.53;5084779;28;20543;-58
2023/09/10 09:15:31;;;;;;;8.73;7.88;;;;;;;35.71;26.38;100156.31;5067792;28;20040;-46
2023/09/10 09:17:58;;;;;;;9.63;6.70;;;;;;;35.37;25.96;100144.53;5065365;28;20400;-48
2023/09/10 09:20:25;;;;;;;8.13;6.50;;;;;;;35.12;25.69;100149.56;5066120;28;20082;-49
2023/09/10 09:22:58;;;;;;;8.30;7.33;;;;;;;35.28;25.86;100151.97;5075984;28;20301;-48
2023/09/10 09:25:24;;;;;;;8.88;7.55;;;;;;;34.94;25.54;100113.28;5072131;28;20519;-54
2023/09/10 09:27:50;;;;;;;8.50;7.40;;;;;;;35.78;25.43;100143.66;5070048;28;20041;-44
2023/09/10 09:30:16;;;;;;;9.02;7.00;;;;;;;36.60;24.29;100143.31;5068623;28;20531;-50
2023/09/10 09:32:44;;;;;;;8.05;6.95;;;;;;;37.17;23.31;100145.31;5074172;28;20032;-45
2023/09/10 09:35:10;;;;;;;9.02;7.10;;;;;;;37.64;22.80;100144.94;5067108;28;20040;-44
2023/09/10 09:37:37;;;;;;;7.72;6.75;;;;;;;38.20;22.40;100113.47;5054928;28;20035;-46
2023/09/10 09:40:04;;;;;;;9.43;6.53;;;;;;;38.74;21.72;100137.25;5068752;28;20048;-52
2023/09/10 09:42:31;;;;;;;9.55;6.55;;;;;;;39.05;21.50;100125.44;5074822;28;20072;-49
2023/09/10 09:44:57;;;;;;;9.90;6.80;;;;;;;39.28;21.10;100126.41;5061555;28;20091;-49
2023/09/10 09:47:23;;;;;;;9.75;6.72;;;;;;;39.55;20.15;100134.25;5054076;28;20051;-45
2023/09/10 09:49:50;;;;;;;8.82;6.35;;;;;;;39.65;20.35;100124.47;5058883;28;20040;-45
2023/09/10 09:52:18;;;;;;;7.45;6.68;;;;;;;39.49;20.68;100127.84;5049722;28;20028;-43
2023/09/10 09:54:48;;;;;;;12.60;9.93;;;;;;;39.60;20.47;100118.88;5064493;28;20062;-44
2023/09/10 09:57:17;;;;;;;7.32;6.32;;;;;;;39.93;20.19;100104.81;5072778;28;20131;-46
2023/09/10 09:59:44;;;;;;;7.22;6.60;;;;;;;40.21;19.95;100098.72;5067734;28;20698;-42
2023/09/10 10:02:15;;;;;;;7.05;6.35;;;;;;;40.30;19.36;100091.88;5027864;28;20041;-40
2023/09/10 10:04:43;;;;;;;7.07;6.38;;;;;;;40.55;19.36;100114.25;5071894;28;20056;-41
2023/09/10 10:07:11;;;;;;;9.20;6.38;;;;;;;40.78;19.36;100098.94;5064870;28;20044;-47
2023/09/10 10:09:38;;;;;;;7.63;6.68;;;;;;;41.34;18.70;100104.56;5048924;28;20040;-49
2023/09/10 10:12:05;;;;;;;8.35;7.07;;;;;;;41.61;18.26;100107.56;5078664;28;20063;-48
2023/09/10 10:14:35;;;;;;;9.65;6.97;;;;;;;41.12;18.42;100100.81;5078531;28;20043;-53
2023/09/10 10:17:03;;;;;;;7.25;6.30;;;;;;;41.12;18.81;100100.81;5066100;28;20300;-52
2023/09/10 10:19:31;;;;;;;8.52;7.07;;;;;;;41.04;18.36;100073.91;5076830;28;20511;-48
2023/09/10 10:21:59;;;;;;;6.72;6.10;;;;;;;41.46;18.56;100103.72;5080685;28;20592;-47
2023/09/10 10:24:26;;;;;;;7.25;6.18;;;;;;;41.78;18.24;100091.16;5072842;28;20583;-48
2023/09/10 10:26:53;;;;;;;7.80;6.60;;;;;;;41.71;18.15;100077.69;5076323;28;20550;-46
2023/09/10 10:29:20;;;;;;;7.22;6.35;;;;;;;41.95;17.69;100091.22;5067181;28;20048;-49
2023/09/10 10:31:51;;;;;;;7.50;6.75;;;;;;;42.01;18.02;100076.56;5075865;28;20123;-46
2023/09/10 10:34:23;;;;;;;6.95;6.05;;;;;;;41.99;17.63;100074.06;5074041;28;20076;-48
2023/09/10 10:36:51;;;;;;;9.25;6.90;;;;;;;42.43;17.45;100069.59;5079274;28;20045;-49
2023/09/10 10:39:26;;;;;;;7.57;6.88;;;;;;;42.54;17.53;100065.94;5070805;28;20048;-46
2023/09/10 10:41:53;;;;;;;8.40;5.70;;;;;;;42.46;17.53;100060.88;5077035;28;20539;-48
2023/09/10 10:44:22;;;;;;;12.25;7.53;;;;;;;42.57;17.28;100062.69;5079470;28;20045;-46
2023/09/10 10:46:56;;;;;;;7.28;6.57;;;;;;;42.88;17.26;100052.16;5078883;28;20028;-45
2023/09/10 10:49:22;;;;;;;6.35;5.30;;;;;;;43.27;16.91;100056.50;5077486;28;20274;-44
2023/09/10 10:51:50;;;;;;;6.13;5.15;;;;;;;43.27;16.82;100047.44;5070174;28;20048;-45
2023/09/10 10:54:16;;;;;;;5.18;4.15;;;;;;;43.19;16.48;100036.94;5081348;28;20079;-44
2023/09/10 10:56:42;;;;;;;6.57;4.40;;;;;;;43.21;16.40;100029.31;5077440;28;20400;-45
2023/09/10 10:59:08;;;;;;;6.72;4.03;;;;;;;43.47;16.20;100043.00;5074228;28;20139;-43
2023/09/10 11:01:34;;;;;;;4.40;3.92;;;;;;;43.38;16.25;100030.03;5071501;28;20804;-43
2023/09/10 11:04:17;;;;;;;4.28;3.88;;;;;;;43.66;15.87;100031.69;5075875;28;20121;-46
2023/09/10 11:07:17;;;;;;;5.18;4.68;;;;;;;43.54;16.26;100040.09;5082262;28;20045;-46
2023/09/10 11:09:44;;;;;;;5.47;5.03;;;;;;;43.55;16.00;100025.28;5075198;28;20067;-45
2023/09/10 11:12:09;;;;;;;6.90;4.05;;;;;;;43.14;16.10;100010.34;5071669;28;20115;-46
2023/09/10 11:15:00;;;;;;;4.95;3.97;;;;;;;43.07;16.09;100026.13;5073063;28;20128;-44
2023/09/10 11:17:35;;;;;;;4.03;3.72;;;;;;;43.31;16.10;100019.28;5064609;28;20036;-45
2023/09/10 11:20:03;;;;;;;4.90;3.72;;;;;;;43.59;16.05;100023.69;5062644;28;20275;-44